createdAt,value
2023-02-16T00:01:21.031Z,1.84
2023-02-16T00:03:55.769Z,2.04
2023-02-16T00:06:27.853Z,1.95
2023-02-16T00:09:04.337Z,1.87
2023-02-16T00:11:55.595Z,1.93
2023-02-16T00:14:28.943Z,1.96
2023-02-16T00:17:02.613Z,1.90
2023-02-16T00:19:36.435Z,1.87
2023-02-16T00:22:09.387Z,1.65
2023-02-16T00:24:42.806Z,1.59
2023-02-16T00:27:18.929Z,1.52
2023-02-16T00:29:51.637Z,1.61
2023-02-16T00:32:28.973Z,1.58
2023-02-16T00:35:02.906Z,1.57
2023-02-16T00:37:38.443Z,1.56
2023-02-16T00:40:16.136Z,1.54
2023-02-16T00:42:57.286Z,1.50
2023-02-16T00:45:30.359Z,1.38
2023-02-16T00:48:02.910Z,1.43
2023-02-16T00:50:37.257Z,1.36
2023-02-16T00:53:12.004Z,1.38
2023-02-16T00:55:43.874Z,1.51
2023-02-16T00:58:25.611Z,1.43
2023-02-16T01:01:03.488Z,1.44
2023-02-16T01:03:36.290Z,1.43
2023-02-16T01:06:25.848Z,1.47
2023-02-16T01:09:29.790Z,1.30
2023-02-16T01:12:02.242Z,1.39
2023-02-16T01:14:35.658Z,1.37
2023-02-16T01:17:07.900Z,1.34
2023-02-16T01:19:40.794Z,1.27
2023-02-16T01:22:12.409Z,1.29
2023-02-16T01:24:44.487Z,1.40
2023-02-16T01:27:17.816Z,1.37
2023-02-16T01:29:50.159Z,1.35
2023-02-16T01:32:23.085Z,1.24
2023-02-16T01:34:55.708Z,1.23
2023-02-16T01:37:27.833Z,1.25
2023-02-16T01:40:04.510Z,1.09
2023-02-16T01:42:43.085Z,0.97
2023-02-16T01:45:26.825Z,1.11
2023-02-16T01:48:03.461Z,1.12
2023-02-16T01:50:45.251Z,1.09
2023-02-16T01:53:30.976Z,1.07
2023-02-16T01:56:18.604Z,1.14
2023-02-16T01:58:56.839Z,1.24
2023-02-16T02:01:54.367Z,1.18
2023-02-16T02:04:49.653Z,0.99
2023-02-16T02:07:28.847Z,1.05
2023-02-16T02:10:11.200Z,1.09
2023-02-16T02:12:50.180Z,1.02
2023-02-16T02:15:31.328Z,1.06
2023-02-16T02:18:04.470Z,1.12
2023-02-16T02:21:08.120Z,1.04
2023-02-16T02:24:08.150Z,1.00
2023-02-16T02:27:09.881Z,0.93
2023-02-16T02:30:22.043Z,0.97
2023-02-16T02:33:23.378Z,0.94
2023-02-16T02:36:04.309Z,1.11
2023-02-16T02:38:47.145Z,1.11
2023-02-16T02:41:52.949Z,1.19
2023-02-16T02:44:28.778Z,1.13
2023-02-16T02:47:04.418Z,1.02
2023-02-16T02:49:38.853Z,0.94
2023-02-16T02:52:13.046Z,1.01
2023-02-16T02:55:03.503Z,0.93
2023-02-16T02:57:58.299Z,0.95
2023-02-16T03:00:45.311Z,0.95
2023-02-16T03:03:28.178Z,0.86
2023-02-16T03:06:10.306Z,0.78
2023-02-16T03:08:48.416Z,0.75
2023-02-16T03:11:48.270Z,0.69
2023-02-16T03:14:27.970Z,0.60
2023-02-16T03:17:21.270Z,0.62
2023-02-16T03:20:19.886Z,0.65
2023-02-16T03:23:12.813Z,0.62
2023-02-16T03:26:04.701Z,0.63
2023-02-16T03:28:57.355Z,0.71
2023-02-16T03:31:44.762Z,0.69
2023-02-16T03:34:20.908Z,0.74
2023-02-16T03:36:59.056Z,0.76
2023-02-16T03:39:56.537Z,0.68
2023-02-16T03:42:29.619Z,0.81
2023-02-16T03:45:05.380Z,0.84
2023-02-16T03:47:41.184Z,0.85
2023-02-16T03:50:15.370Z,0.90
2023-02-16T03:52:48.770Z,0.84
2023-02-16T03:55:24.013Z,0.81
2023-02-16T03:57:56.298Z,0.75
2023-02-16T04:00:29.299Z,0.84
2023-02-16T04:03:05.676Z,1.03
2023-02-16T04:05:39.769Z,0.93
2023-02-16T04:08:13.752Z,0.87
2023-02-16T04:10:48.972Z,0.83
2023-02-16T04:13:22.074Z,0.66
2023-02-16T04:16:00.781Z,0.69
2023-02-16T04:18:34.653Z,0.78
2023-02-16T04:21:12.348Z,0.83
2023-02-16T04:23:44.552Z,0.81
2023-02-16T04:34:06.593Z,1.25
2023-02-16T04:36:39.542Z,1.41
2023-02-16T04:39:11.825Z,1.28
2023-02-16T04:41:43.499Z,1.15
2023-02-16T04:44:15.612Z,0.90
2023-02-16T04:46:47.713Z,0.76
2023-02-16T04:49:20.491Z,0.83
2023-02-16T04:51:53.796Z,0.85
2023-02-16T04:54:25.777Z,0.87
2023-02-16T04:56:57.682Z,0.78
2023-02-16T04:59:29.786Z,0.81
2023-02-16T05:02:02.603Z,0.75
2023-02-16T05:04:34.898Z,0.94
2023-02-16T05:07:12.410Z,0.94
2023-02-16T05:09:47.280Z,0.82
2023-02-16T05:12:37.228Z,0.81
2023-02-16T05:15:10.812Z,0.84
2023-02-16T05:17:42.804Z,0.80
2023-02-16T05:20:16.099Z,0.76
2023-02-16T05:22:47.894Z,0.71
2023-02-16T05:25:20.338Z,0.69
2023-02-16T05:27:52.287Z,0.72
2023-02-16T05:30:24.465Z,0.76
2023-02-16T05:32:59.945Z,0.83
2023-02-16T05:35:31.936Z,0.78
2023-02-16T05:38:03.707Z,0.73
2023-02-16T05:40:36.991Z,0.76
2023-02-16T05:43:09.025Z,0.75
2023-02-16T05:45:41.939Z,0.84
2023-02-16T05:48:13.851Z,0.91
2023-02-16T05:50:45.828Z,0.88
2023-02-16T05:53:18.309Z,0.75
2023-02-16T05:55:52.442Z,0.66
2023-02-16T05:58:24.730Z,0.65
2023-02-16T06:00:56.511Z,0.64
2023-02-16T06:03:28.389Z,0.67
2023-02-16T06:06:01.943Z,0.67
2023-02-16T06:08:34.401Z,0.74
2023-02-16T06:11:27.782Z,0.70
2023-02-16T06:13:59.821Z,0.62
2023-02-16T06:16:32.839Z,0.66
2023-02-16T06:19:05.560Z,0.60
2023-02-16T06:21:37.692Z,0.60
2023-02-16T06:24:11.151Z,0.65
2023-02-16T06:26:43.471Z,0.73
2023-02-16T06:29:15.645Z,0.77
2023-02-16T06:31:47.562Z,0.84
2023-02-16T06:34:19.535Z,0.90
2023-02-16T06:36:51.719Z,1.08
2023-02-16T06:39:23.704Z,0.99
2023-02-16T06:41:55.983Z,1.00
2023-02-16T06:44:31.003Z,1.03
2023-02-16T06:47:02.897Z,1.07
2023-02-16T06:49:35.020Z,1.10
2023-02-16T06:52:07.649Z,1.01
2023-02-16T06:54:39.514Z,1.13
2023-02-16T06:57:11.683Z,1.22
2023-02-16T06:59:43.485Z,1.44
2023-02-16T07:02:15.736Z,1.62
2023-02-16T07:04:47.478Z,1.66
2023-02-16T07:07:19.092Z,1.84
2023-02-16T07:09:50.964Z,1.98
2023-02-16T07:12:25.150Z,2.30
2023-02-16T07:14:56.855Z,2.53
2023-02-16T07:17:28.684Z,2.60
2023-02-16T07:20:00.734Z,2.69
2023-02-16T07:22:32.342Z,2.78
2023-02-16T07:25:04.809Z,2.98
2023-02-16T07:27:36.751Z,3.01
2023-02-16T07:30:11.391Z,3.10
2023-02-16T07:32:43.079Z,3.22
2023-02-16T07:35:16.187Z,3.35
2023-02-16T07:37:48.068Z,3.61
2023-02-16T07:40:20.006Z,3.80
2023-02-16T07:42:51.753Z,3.85
2023-02-16T07:45:23.627Z,3.89
2023-02-16T07:47:55.393Z,3.92
2023-02-16T07:50:27.878Z,3.99
2023-02-16T07:52:59.643Z,4.07
2023-02-16T07:55:33.660Z,4.09
2023-02-16T07:58:05.898Z,4.11
2023-02-16T08:00:37.929Z,4.28
2023-02-16T08:03:11.164Z,4.32
2023-02-16T08:05:43.237Z,4.42
2023-02-16T08:08:15.077Z,4.52
2023-02-16T08:10:47.531Z,4.63
2023-02-16T08:13:19.512Z,4.76
2023-02-16T08:15:51.308Z,5.04
2023-02-16T08:18:23.212Z,5.10
2023-02-16T08:21:03.750Z,5.21
2023-02-16T08:23:36.044Z,5.40
2023-02-16T08:26:13.219Z,5.61
2023-02-16T08:28:46.397Z,5.78
2023-02-16T08:31:21.502Z,5.82
2023-02-16T08:33:54.104Z,6.01
2023-02-16T08:36:29.812Z,6.02
2023-02-16T08:39:02.579Z,6.03
2023-02-16T08:41:35.664Z,6.01
2023-02-16T08:44:08.689Z,6.02
2023-02-16T08:46:43.143Z,6.10
2023-02-16T08:49:17.411Z,6.31
2023-02-16T08:51:51.173Z,6.39
2023-02-16T08:54:25.820Z,6.31
2023-02-16T08:56:59.289Z,6.29
2023-02-16T08:59:31.945Z,6.34
2023-02-16T09:02:04.188Z,6.38
2023-02-16T09:04:37.180Z,6.46
2023-02-16T09:07:09.203Z,6.47
2023-02-16T09:09:42.684Z,6.59
2023-02-16T09:12:14.694Z,6.71
2023-02-16T09:14:49.331Z,6.84
2023-02-16T09:17:21.479Z,6.73
2023-02-16T09:19:53.285Z,6.74
2023-02-16T09:22:25.449Z,6.77
2023-02-16T09:25:00.298Z,6.75
2023-02-16T09:27:33.074Z,6.69
2023-02-16T09:30:07.224Z,6.81
2023-02-16T09:32:39.462Z,6.92
2023-02-16T09:35:12.416Z,7.09
2023-02-16T09:37:44.072Z,7.24
2023-02-16T09:40:16.830Z,7.27
2023-02-16T09:42:58.701Z,7.31
2023-02-16T09:45:35.607Z,7.29
2023-02-16T09:48:12.163Z,7.27
2023-02-16T09:50:54.940Z,7.27
2023-02-16T09:53:35.879Z,7.41
2023-02-16T09:56:21.793Z,7.59
2023-02-16T09:59:03.859Z,7.79
2023-02-16T10:01:43.978Z,7.74
2023-02-16T10:04:39.340Z,7.78
2023-02-16T10:07:25.443Z,7.96
2023-02-16T10:09:59.105Z,8.04
2023-02-16T10:12:39.778Z,8.17
2023-02-16T10:15:20.817Z,8.32
2023-02-16T10:18:00.409Z,8.34
2023-02-16T10:20:36.040Z,8.37
2023-02-16T10:23:16.178Z,8.31
2023-02-16T10:25:55.940Z,8.33
2023-02-16T10:28:43.422Z,8.31
2023-02-16T10:31:21.256Z,8.41
2023-02-16T10:34:18.262Z,8.52
2023-02-16T10:37:06.426Z,8.48
2023-02-16T10:39:47.412Z,8.50
2023-02-16T10:42:27.039Z,8.54
2023-02-16T10:45:08.528Z,8.49
2023-02-16T10:47:42.836Z,8.44
2023-02-16T10:50:28.426Z,8.43
2023-02-16T10:53:03.529Z,8.44
2023-02-16T10:55:36.850Z,8.39
2023-02-16T10:58:17.463Z,8.42
2023-02-16T11:00:58.186Z,8.34
2023-02-16T11:03:37.843Z,8.27
2023-02-16T11:06:19.534Z,8.34
2023-02-16T11:08:57.612Z,8.37
2023-02-16T11:11:30.910Z,8.34
2023-02-16T11:14:06.400Z,8.38
2023-02-16T11:16:39.948Z,8.46
2023-02-16T11:19:20.569Z,8.62
2023-02-16T11:21:56.352Z,8.67
2023-02-16T11:24:34.368Z,8.81
2023-02-16T11:27:16.723Z,8.84
2023-02-16T11:29:49.359Z,8.81
2023-02-16T11:32:23.100Z,8.82
2023-02-16T11:34:55.714Z,8.89
2023-02-16T11:37:31.429Z,8.89
2023-02-16T11:40:05.647Z,9.00
2023-02-16T11:42:44.190Z,9.10
2023-02-16T11:45:31.003Z,9.11
2023-02-16T11:48:07.728Z,9.11
2023-02-16T11:50:57.534Z,9.14
2023-02-16T11:53:31.772Z,9.17
2023-02-16T11:56:24.608Z,9.26
2023-02-16T11:59:19.435Z,9.24
2023-02-16T12:02:19.328Z,9.22
2023-02-16T12:05:04.131Z,9.38
2023-02-16T12:07:43.737Z,9.53
2023-02-16T12:10:20.682Z,9.56
2023-02-16T12:13:03.584Z,9.49
2023-02-16T12:15:45.289Z,9.50
2023-02-16T12:18:38.282Z,9.66
2023-02-16T12:21:23.140Z,9.79
2023-02-16T12:24:09.463Z,9.75
2023-02-16T12:26:54.252Z,9.65
2023-02-16T12:29:39.631Z,9.61
2023-02-16T12:32:32.168Z,9.59
2023-02-16T12:35:30.228Z,9.66
2023-02-16T12:38:13.898Z,9.74
2023-02-16T12:40:54.394Z,9.79
2023-02-16T12:43:40.392Z,9.78
2023-02-16T12:46:23.615Z,9.74
2023-02-16T12:49:01.666Z,9.65
2023-02-16T12:51:39.202Z,9.68
2023-02-16T12:54:19.497Z,9.83
2023-02-16T12:56:56.592Z,9.88
2023-02-16T12:59:37.982Z,9.76
2023-02-16T13:02:17.244Z,9.75
2023-02-16T13:04:52.632Z,9.75
2023-02-16T13:07:32.908Z,9.80
2023-02-16T13:10:17.094Z,9.81
2023-02-16T13:12:52.578Z,9.76
2023-02-16T13:15:28.954Z,9.77
2023-02-16T13:18:07.723Z,9.72
2023-02-16T13:20:46.345Z,9.72
2023-02-16T13:23:39.393Z,9.81
2023-02-16T13:26:36.660Z,9.79
2023-02-16T13:29:39.507Z,9.80
2023-02-16T13:32:38.345Z,9.84
2023-02-16T13:35:34.700Z,9.92
2023-02-16T13:38:21.161Z,9.94
2023-02-16T13:41:19.099Z,9.91
2023-02-16T13:43:54.603Z,9.79
2023-02-16T13:46:35.840Z,9.87
2023-02-16T13:49:09.312Z,9.91
2023-02-16T13:51:48.128Z,9.91
2023-02-16T13:54:34.342Z,9.86
2023-02-16T13:57:15.617Z,9.80
2023-02-16T14:00:01.617Z,9.76
2023-02-16T14:02:58.969Z,9.71
2023-02-16T14:05:41.027Z,9.69
2023-02-16T14:08:23.251Z,9.63
2023-02-16T14:11:17.254Z,9.61
2023-02-16T14:13:53.138Z,9.51
2023-02-16T14:16:35.921Z,9.51
2023-02-16T14:19:19.585Z,9.55
2023-02-16T14:21:54.059Z,9.51
2023-02-16T14:24:34.409Z,9.43
2023-02-16T14:27:07.877Z,9.35
2023-02-16T14:29:43.019Z,9.22
2023-02-16T14:32:30.710Z,9.18
2023-02-16T14:35:15.566Z,9.17
2023-02-16T14:37:57.559Z,9.20
2023-02-16T14:40:47.197Z,9.20
2023-02-16T14:43:28.505Z,9.31
2023-02-16T14:46:43.879Z,9.16
2023-02-16T14:49:48.454Z,8.96
2023-02-16T14:52:46.301Z,8.90
2023-02-16T14:55:56.453Z,8.78
2023-02-16T14:58:37.872Z,8.73
2023-02-16T15:01:16.742Z,8.75
2023-02-16T15:03:52.946Z,8.67
2023-02-16T15:06:31.672Z,8.58
2023-02-16T15:09:08.311Z,8.55
2023-02-16T15:11:58.811Z,8.57
2023-02-16T15:14:33.996Z,8.62
2023-02-16T15:17:10.745Z,8.61
2023-02-16T15:19:48.647Z,8.68
2023-02-16T15:22:26.436Z,8.57
2023-02-16T15:25:03.884Z,8.73
2023-02-16T15:27:35.757Z,8.84
2023-02-16T15:30:23.358Z,8.82
2023-02-16T15:32:59.661Z,8.59
2023-02-16T15:35:52.409Z,8.45
2023-02-16T15:38:30.434Z,8.45
2023-02-16T15:41:30.660Z,8.48
2023-02-16T15:44:04.434Z,8.26
2023-02-16T15:46:52.734Z,8.17
2023-02-16T15:49:33.015Z,7.95
2023-02-16T15:52:12.814Z,7.89
2023-02-16T15:54:50.936Z,7.85
2023-02-16T15:57:52.456Z,7.80
2023-02-16T16:00:32.906Z,7.64
2023-02-16T16:03:06.250Z,7.70
2023-02-16T16:05:41.185Z,7.69
2023-02-16T16:08:21.081Z,7.55
2023-02-16T16:10:53.593Z,7.33
2023-02-16T16:13:29.808Z,7.31
2023-02-16T16:16:07.668Z,7.32
2023-02-16T16:18:46.560Z,7.24
2023-02-16T16:21:24.643Z,7.17
2023-02-16T16:24:07.492Z,7.05
2023-02-16T16:26:55.969Z,6.92
2023-02-16T16:29:38.609Z,6.97
2023-02-16T16:32:26.318Z,7.05
2023-02-16T16:34:58.779Z,6.91
2023-02-16T16:37:33.565Z,6.85
2023-02-16T16:40:06.841Z,6.90
2023-02-16T16:42:41.904Z,6.88
2023-02-16T16:45:39.012Z,6.83
2023-02-16T16:48:25.797Z,6.65
2023-02-16T16:51:14.004Z,6.62
2023-02-16T16:54:07.285Z,6.54
2023-02-16T16:56:43.885Z,6.57
2023-02-16T16:59:18.926Z,6.62
2023-02-16T17:01:54.098Z,6.56
2023-02-16T17:04:29.149Z,6.50
2023-02-16T17:07:02.638Z,6.26
2023-02-16T17:09:39.790Z,6.06
2023-02-16T17:12:15.915Z,6.01
2023-02-16T17:14:48.631Z,6.04
2023-02-16T17:17:26.872Z,5.99
2023-02-16T17:20:01.597Z,5.92
2023-02-16T17:23:02.264Z,5.99
2023-02-16T17:25:51.802Z,6.02
2023-02-16T17:28:31.456Z,6.00
2023-02-16T17:31:06.479Z,6.00
2023-02-16T17:33:41.435Z,5.93
2023-02-16T17:36:20.140Z,5.90
2023-02-16T17:38:54.975Z,5.82
2023-02-16T17:41:30.017Z,5.84
2023-02-16T17:44:17.813Z,5.72
2023-02-16T17:46:55.189Z,5.68
2023-02-16T17:49:48.011Z,5.71
2023-02-16T17:52:30.398Z,5.64
2023-02-16T17:55:14.302Z,5.55
2023-02-16T17:58:04.982Z,5.62
2023-02-16T18:00:55.390Z,5.61
2023-02-16T18:03:33.541Z,5.49
2023-02-16T18:06:18.735Z,5.42
2023-02-16T18:08:58.850Z,5.44
2023-02-16T18:11:33.493Z,5.38
2023-02-16T18:14:13.357Z,5.26
2023-02-16T18:16:53.984Z,5.25
2023-02-16T18:19:32.047Z,5.36
2023-02-16T18:22:08.764Z,5.32
2023-02-16T18:24:48.030Z,5.33
2023-02-16T18:27:29.371Z,5.25
2023-02-16T18:30:15.481Z,5.21
2023-02-16T18:33:17.588Z,5.23
2023-02-16T18:36:10.783Z,5.21
2023-02-16T18:38:45.673Z,5.13
2023-02-16T18:41:22.576Z,5.18
2023-02-16T18:44:05.940Z,5.12
2023-02-16T18:46:44.009Z,5.07
2023-02-16T18:49:20.940Z,5.00
2023-02-16T18:51:59.138Z,4.98
2023-02-16T18:54:37.417Z,5.06
2023-02-16T18:57:18.191Z,5.05
2023-02-16T18:59:54.803Z,5.06
2023-02-16T19:02:33.530Z,5.15
2023-02-16T19:05:13.559Z,5.38
2023-02-16T19:08:01.903Z,5.35
2023-02-16T19:10:51.602Z,5.21
2023-02-16T19:13:30.516Z,5.19
2023-02-16T19:16:20.222Z,5.10
2023-02-16T19:18:57.386Z,5.06
2023-02-16T19:21:34.663Z,4.97
2023-02-16T19:24:12.271Z,4.90
2023-02-16T19:27:02.315Z,4.94
2023-02-16T19:29:38.043Z,5.06
2023-02-16T19:32:18.057Z,5.09
2023-02-16T19:35:11.493Z,4.94
2023-02-16T19:37:55.161Z,4.83
2023-02-16T19:40:30.674Z,4.85
2023-02-16T19:43:17.730Z,4.79
2023-02-16T19:46:28.011Z,4.88
2023-02-16T19:49:05.471Z,4.82
2023-02-16T19:51:40.620Z,4.85
2023-02-16T19:54:21.135Z,4.88
2023-02-16T19:56:55.243Z,4.81
2023-02-16T19:59:35.601Z,4.80
2023-02-16T20:02:12.411Z,4.81
2023-02-16T20:04:51.640Z,4.81
2023-02-16T20:07:31.195Z,4.70
2023-02-16T20:10:04.726Z,4.75
2023-02-16T20:12:47.804Z,4.94
2023-02-16T20:15:26.506Z,4.97
2023-02-16T20:18:05.254Z,5.12
2023-02-16T20:20:44.196Z,5.23
2023-02-16T20:23:22.728Z,5.09
2023-02-16T20:25:58.348Z,5.07
2023-02-16T20:28:34.910Z,5.09
2023-02-16T20:31:20.548Z,5.15
2023-02-16T20:34:12.379Z,5.14
2023-02-16T20:37:05.132Z,5.18
2023-02-16T20:39:45.762Z,5.29
2023-02-16T20:45:10.710Z,5.26
2023-02-16T20:47:47.868Z,5.24
2023-02-16T20:54:05.579Z,5.27
2023-02-16T21:00:22.625Z,5.32
2023-02-16T21:02:54.856Z,5.38
2023-02-16T21:05:46.095Z,5.37
2023-02-16T21:08:19.609Z,5.42
2023-02-16T21:11:01.697Z,5.33
2023-02-16T21:13:42.491Z,5.24
2023-02-16T21:16:21.414Z,5.35
2023-02-16T21:19:00.547Z,5.23
2023-02-16T21:21:43.722Z,5.26
2023-02-16T21:24:23.944Z,5.13
2023-02-16T21:27:04.946Z,5.21
2023-02-16T21:29:42.091Z,5.17
2023-02-16T21:32:14.303Z,5.33
2023-02-16T21:34:46.609Z,5.42
2023-02-16T21:37:19.194Z,5.36
2023-02-16T21:40:09.094Z,5.29
2023-02-16T21:42:41.911Z,5.31
2023-02-16T21:45:17.904Z,5.26
2023-02-16T21:48:07.390Z,5.33
2023-02-16T21:50:41.910Z,5.39
2023-02-16T21:53:14.497Z,5.29
2023-02-16T21:56:07.226Z,5.26
2023-02-16T21:58:39.653Z,5.19
2023-02-16T22:01:11.441Z,5.15
2023-02-16T22:03:43.009Z,5.19
2023-02-16T22:06:14.913Z,5.24
2023-02-16T22:08:47.066Z,5.17
2023-02-16T22:11:19.133Z,5.04
2023-02-16T22:13:54.587Z,5.01
2023-02-16T22:16:27.323Z,5.07
2023-02-16T22:19:01.361Z,5.06
2023-02-16T22:21:33.536Z,5.02
2023-02-16T22:24:06.212Z,4.92
2023-02-16T22:26:38.957Z,4.91
2023-02-16T22:29:11.570Z,4.97
2023-02-16T22:31:47.732Z,4.85
2023-02-16T22:34:22.177Z,4.68
2023-02-16T22:36:54.975Z,4.55
2023-02-16T22:39:27.285Z,4.66
2023-02-16T22:41:58.889Z,4.75
2023-02-16T22:44:30.574Z,4.70
2023-02-16T22:47:03.004Z,4.68
2023-02-16T22:49:35.345Z,4.64
2023-02-16T22:52:07.186Z,4.61
2023-02-16T22:54:38.970Z,4.57
2023-02-16T22:57:10.780Z,4.62
2023-02-16T22:59:43.857Z,4.56
2023-02-16T23:02:16.095Z,4.53
2023-02-16T23:04:47.714Z,4.59
2023-02-16T23:07:19.398Z,4.49
2023-02-16T23:09:50.962Z,4.47
2023-02-16T23:12:22.690Z,4.61
2023-02-16T23:14:54.473Z,4.81
2023-02-16T23:17:26.199Z,4.75
2023-02-16T23:19:57.733Z,4.66
2023-02-16T23:22:30.548Z,4.76
2023-02-16T23:25:19.325Z,4.78
2023-02-16T23:27:53.264Z,4.78
2023-02-16T23:30:25.091Z,4.80
2023-02-16T23:32:56.726Z,4.72
2023-02-16T23:35:28.327Z,4.62
2023-02-16T23:38:01.735Z,4.61
2023-02-16T23:40:33.312Z,4.69
2023-02-16T23:43:05.053Z,4.63
2023-02-16T23:45:37.005Z,4.61
2023-02-16T23:48:09.251Z,4.57
2023-02-16T23:50:40.924Z,4.68
2023-02-16T23:53:12.594Z,4.76
2023-02-16T23:55:44.372Z,4.76
2023-02-16T23:58:16.047Z,4.79
